createdAt,value
2022-08-19T00:01:32.275Z,40.32
2022-08-19T00:04:08.572Z,40.01
2022-08-19T00:06:38.514Z,40.01
2022-08-19T00:09:09.705Z,40.46
2022-08-19T00:11:38.439Z,40.35
2022-08-19T00:14:08.306Z,40.53
2022-08-19T00:16:36.461Z,40.13
2022-08-19T00:19:05.677Z,40.12
2022-08-19T00:21:33.623Z,40.16
2022-08-19T00:24:02.112Z,40.51
2022-08-19T00:26:31.452Z,40.31
2022-08-19T00:29:00.904Z,40.78
2022-08-19T00:31:30.631Z,41.05
2022-08-19T00:33:58.880Z,41.16
2022-08-19T00:36:27.472Z,40.67
2022-08-19T00:38:55.328Z,41.34
2022-08-19T00:41:26.300Z,41.26
2022-08-19T00:44:05.566Z,41.33
2022-08-19T00:46:34.664Z,41.12
2022-08-19T00:49:07.544Z,41.11
2022-08-19T00:51:35.684Z,41.38
2022-08-19T00:54:04.723Z,41.51
2022-08-19T00:56:33.312Z,41.59
2022-08-19T00:59:03.822Z,41.16
2022-08-19T01:01:31.971Z,41.32
2022-08-19T01:04:00.124Z,41.67
2022-08-19T01:06:28.428Z,41.67
2022-08-19T01:08:58.747Z,41.86
2022-08-19T01:11:28.814Z,41.63
2022-08-19T01:13:56.879Z,41.42
2022-08-19T01:16:29.145Z,41.77
2022-08-19T01:18:57.556Z,41.31
2022-08-19T01:21:33.287Z,41.21
2022-08-19T01:24:03.181Z,41.33
2022-08-19T01:26:31.834Z,41.13
2022-08-19T01:29:02.003Z,40.94
2022-08-19T01:31:32.793Z,40.86
2022-08-19T01:34:02.452Z,40.75
2022-08-19T01:36:34.099Z,40.77
2022-08-19T01:39:08.056Z,41.01
2022-08-19T01:41:37.079Z,40.45
2022-08-19T01:44:18.120Z,40.81
2022-08-19T01:46:50.272Z,40.54
2022-08-19T01:49:21.257Z,41.04
2022-08-19T01:51:49.724Z,41.13
2022-08-19T01:54:27.001Z,41.28
2022-08-19T01:57:01.312Z,40.95
2022-08-19T01:59:30.488Z,41.32
2022-08-19T02:01:58.709Z,41.33
2022-08-19T02:04:27.200Z,41.47
2022-08-19T02:06:55.152Z,41.34
2022-08-19T02:09:24.477Z,41.23
2022-08-19T02:11:52.383Z,41.84
2022-08-19T02:14:20.323Z,41.91
2022-08-19T02:16:48.255Z,41.80
2022-08-19T02:19:16.133Z,41.88
2022-08-19T02:21:44.558Z,41.54
2022-08-19T02:24:14.265Z,41.67
2022-08-19T02:26:49.341Z,41.80
2022-08-19T02:29:22.336Z,41.84
2022-08-19T02:31:51.269Z,42.22
2022-08-19T02:34:22.225Z,42.68
2022-08-19T02:36:51.945Z,43.27
2022-08-19T02:39:20.105Z,43.30
2022-08-19T02:41:50.404Z,43.50
2022-08-19T02:44:29.189Z,43.91
2022-08-19T02:46:59.373Z,44.54
2022-08-19T02:49:27.297Z,44.96
2022-08-19T02:51:55.319Z,45.05
2022-08-19T02:54:23.231Z,45.01
2022-08-19T02:56:52.714Z,45.12
2022-08-19T02:59:22.903Z,45.38
2022-08-19T03:01:51.075Z,45.26
2022-08-19T03:04:20.160Z,45.04
2022-08-19T03:06:49.465Z,45.12
2022-08-19T03:09:19.220Z,45.13
2022-08-19T03:11:47.298Z,45.17
2022-08-19T03:14:20.248Z,44.88
2022-08-19T03:16:51.255Z,44.86
2022-08-19T03:19:22.211Z,45.04
2022-08-19T03:21:51.486Z,45.32
2022-08-19T03:24:20.668Z,45.64
2022-08-19T03:26:50.757Z,46.22
2022-08-19T03:29:30.180Z,46.60
2022-08-19T03:32:01.681Z,46.58
2022-08-19T03:34:32.054Z,47.50
2022-08-19T03:37:04.625Z,47.88
2022-08-19T03:39:32.903Z,47.98
2022-08-19T03:42:31.736Z,47.95
2022-08-19T03:44:51.562Z,47.76
2022-08-19T03:47:22.425Z,47.96
2022-08-19T03:49:50.597Z,47.75
2022-08-19T03:52:18.500Z,47.66
2022-08-19T03:54:46.430Z,47.91
2022-08-19T03:57:14.304Z,48.04
2022-08-19T03:59:42.288Z,47.47
2022-08-19T04:02:13.980Z,47.55
2022-08-19T04:04:45.057Z,47.32
2022-08-19T04:07:16.740Z,47.25
2022-08-19T04:09:45.148Z,47.53
2022-08-19T04:12:13.245Z,48.13
2022-08-19T04:14:41.623Z,47.85
2022-08-19T04:17:13.892Z,47.84
2022-08-19T04:19:44.137Z,47.58
2022-08-19T04:22:12.953Z,47.21
2022-08-19T04:24:40.902Z,47.06
2022-08-19T04:27:09.032Z,46.81
2022-08-19T04:29:39.189Z,47.20
2022-08-19T04:32:09.437Z,47.33
2022-08-19T04:35:02.530Z,47.43
2022-08-19T04:37:34.870Z,47.51
2022-08-19T04:40:24.893Z,47.93
2022-08-19T04:42:53.070Z,47.37
2022-08-19T04:45:22.956Z,46.88
2022-08-19T04:47:58.145Z,46.58
2022-08-19T04:50:29.064Z,46.47
2022-08-19T04:52:57.676Z,46.97
2022-08-19T04:55:27.375Z,47.09
2022-08-19T04:57:55.841Z,47.22
2022-08-19T05:00:23.844Z,47.11
2022-08-19T05:02:51.984Z,46.81
2022-08-19T05:05:20.749Z,46.50
2022-08-19T05:07:50.122Z,46.00
2022-08-19T05:10:18.136Z,45.71
2022-08-19T05:12:47.228Z,45.31
2022-08-19T05:15:15.582Z,45.05
2022-08-19T05:18:04.188Z,44.95
2022-08-19T05:20:49.907Z,44.55
2022-08-19T05:23:22.831Z,44.51
2022-08-19T05:25:52.477Z,44.47
2022-08-19T05:28:20.972Z,44.40
2022-08-19T05:30:51.714Z,44.68
2022-08-19T05:33:20.269Z,44.82
2022-08-19T05:35:49.272Z,44.41
2022-08-19T05:38:19.152Z,44.81
2022-08-19T05:40:47.938Z,44.84
2022-08-19T05:43:17.451Z,44.96
2022-08-19T05:45:45.628Z,44.88
2022-08-19T05:48:14.144Z,45.37
2022-08-19T05:50:43.748Z,45.35
2022-08-19T05:53:11.804Z,45.50
2022-08-19T05:55:41.296Z,45.66
2022-08-19T05:58:09.491Z,45.37
2022-08-19T06:00:38.403Z,45.47
2022-08-19T06:03:12.695Z,44.96
2022-08-19T06:05:50.252Z,45.43
2022-08-19T06:08:34.627Z,45.71
2022-08-19T06:11:18.900Z,45.50
2022-08-19T06:13:48.519Z,45.62
2022-08-19T06:16:20.526Z,45.28
2022-08-19T06:18:48.575Z,45.82
2022-08-19T06:21:16.484Z,45.47
2022-08-19T06:23:44.306Z,45.49
2022-08-19T06:26:14.217Z,45.11
2022-08-19T06:28:47.356Z,45.25
2022-08-19T06:31:17.047Z,45.24
2022-08-19T06:33:45.867Z,44.84
2022-08-19T06:36:21.501Z,45.13
2022-08-19T06:38:53.255Z,44.20
2022-08-19T06:41:21.580Z,44.17
2022-08-19T06:43:50.884Z,43.84
2022-08-19T06:46:22.514Z,42.99
2022-08-19T06:48:54.214Z,42.85
2022-08-19T06:51:23.414Z,42.29
2022-08-19T06:53:55.056Z,41.94
2022-08-19T06:56:31.494Z,41.57
2022-08-19T06:59:01.470Z,41.51
2022-08-19T07:01:29.485Z,41.04
2022-08-19T07:03:57.538Z,40.79
2022-08-19T07:06:43.778Z,40.67
2022-08-19T07:09:15.050Z,40.63
2022-08-19T07:11:47.983Z,40.12
2022-08-19T07:14:20.528Z,39.98
2022-08-19T07:16:51.142Z,40.02
2022-08-19T07:19:20.218Z,39.42
2022-08-19T07:21:48.887Z,39.50
2022-08-19T07:24:17.518Z,39.33
2022-08-19T07:26:45.621Z,39.49
2022-08-19T07:29:14.157Z,39.61
2022-08-19T07:31:43.759Z,39.34
2022-08-19T07:34:15.642Z,39.17
2022-08-19T07:36:45.564Z,39.17
2022-08-19T07:39:16.597Z,38.76
2022-08-19T07:41:45.311Z,38.50
2022-08-19T07:44:13.820Z,38.80
2022-08-19T07:46:48.147Z,38.51
2022-08-19T07:49:20.059Z,38.48
2022-08-19T07:51:49.903Z,38.71
2022-08-19T07:54:18.464Z,39.10
2022-08-19T07:56:46.380Z,39.11
2022-08-19T07:59:14.422Z,38.88
2022-08-19T08:01:43.638Z,38.60
2022-08-19T08:04:29.365Z,38.80
2022-08-19T08:07:14.706Z,38.18
2022-08-19T08:09:44.466Z,38.12
2022-08-19T08:12:33.541Z,37.70
2022-08-19T08:15:08.412Z,37.24
2022-08-19T08:17:49.357Z,36.84
2022-08-19T08:20:21.102Z,36.81
2022-08-19T08:23:07.474Z,36.71
2022-08-19T08:25:38.221Z,36.47
2022-08-19T08:28:09.138Z,36.18
2022-08-19T08:30:42.472Z,36.01
2022-08-19T08:35:47.925Z,35.99
2022-08-19T08:38:16.509Z,36.01
2022-08-19T08:40:49.529Z,36.15
2022-08-19T08:43:25.506Z,36.48
2022-08-19T08:46:01.444Z,36.41
2022-08-19T08:48:40.216Z,36.45
2022-08-19T08:51:13.023Z,36.28
2022-08-19T08:53:43.143Z,35.97
2022-08-19T08:56:13.437Z,36.19
2022-08-19T08:58:58.128Z,36.44
2022-08-19T09:01:29.057Z,36.53
2022-08-19T09:04:03.004Z,36.42
2022-08-19T09:06:40.728Z,36.45
2022-08-19T09:09:18.727Z,36.26
2022-08-19T09:11:58.005Z,36.47
2022-08-19T09:14:51.296Z,36.39
2022-08-19T09:17:29.019Z,36.34
2022-08-19T09:20:05.332Z,36.28
2022-08-19T09:22:34.177Z,36.67
2022-08-19T09:25:02.318Z,36.02
2022-08-19T09:27:42.731Z,35.78
2022-08-19T09:30:16.048Z,35.98
2022-08-19T09:32:44.900Z,35.99
2022-08-19T09:35:16.058Z,35.71
2022-08-19T09:37:45.301Z,35.81
2022-08-19T09:40:14.357Z,35.62
2022-08-19T09:42:49.702Z,35.45
2022-08-19T09:45:21.882Z,34.93
2022-08-19T09:47:52.038Z,34.62
2022-08-19T09:50:24.569Z,34.59
2022-08-19T09:52:57.543Z,34.69
2022-08-19T09:55:31.840Z,34.41
2022-08-19T09:58:02.239Z,34.71
2022-08-19T10:00:31.162Z,34.42
2022-08-19T10:02:59.076Z,33.83
2022-08-19T10:05:48.646Z,33.72
2022-08-19T10:08:18.110Z,33.50
2022-08-19T10:10:47.168Z,33.44
2022-08-19T10:13:17.149Z,32.77
2022-08-19T10:15:47.936Z,32.86
2022-08-19T10:18:17.669Z,32.76
2022-08-19T10:20:51.554Z,33.31
2022-08-19T10:23:21.290Z,32.80
2022-08-19T10:25:50.599Z,32.99
2022-08-19T10:28:19.482Z,33.52
2022-08-19T10:30:48.769Z,33.55
2022-08-19T10:33:38.296Z,33.59
2022-08-19T10:36:10.525Z,33.29
2022-08-19T10:38:39.285Z,33.21
2022-08-19T10:41:19.981Z,33.20
2022-08-19T10:43:48.973Z,33.43
2022-08-19T10:46:18.115Z,32.77
2022-08-19T10:48:47.032Z,32.90
2022-08-19T10:51:33.888Z,33.01
2022-08-19T10:54:02.969Z,32.51
2022-08-19T10:56:53.092Z,32.64
2022-08-19T10:59:22.661Z,32.00
2022-08-19T11:01:56.783Z,32.18
2022-08-19T11:04:28.783Z,31.79
2022-08-19T11:06:58.771Z,31.47
2022-08-19T11:09:33.614Z,30.52
2022-08-19T11:12:03.014Z,30.80
2022-08-19T11:14:34.852Z,30.91
2022-08-19T11:17:10.852Z,30.48
2022-08-19T11:19:43.652Z,30.19
2022-08-19T11:22:16.119Z,30.34
2022-08-19T11:24:47.449Z,30.25
2022-08-19T11:27:15.361Z,30.47
2022-08-19T11:29:43.241Z,30.51
2022-08-19T11:32:13.822Z,29.93
2022-08-19T11:34:41.769Z,30.36
2022-08-19T11:37:10.004Z,30.16
2022-08-19T11:39:40.066Z,29.82
2022-08-19T11:42:29.576Z,30.10
2022-08-19T11:44:57.756Z,29.67
2022-08-19T11:47:26.005Z,29.94
2022-08-19T11:49:54.418Z,30.00
2022-08-19T11:52:22.332Z,29.56
2022-08-19T11:54:51.586Z,29.40
2022-08-19T11:57:20.643Z,29.42
2022-08-19T11:59:52.649Z,29.68
2022-08-19T12:02:21.065Z,29.65
2022-08-19T12:04:49.364Z,29.43
2022-08-19T12:07:17.545Z,29.77
2022-08-19T12:09:45.893Z,29.67
2022-08-19T12:12:17.908Z,29.95
2022-08-19T12:14:47.441Z,29.94
2022-08-19T12:17:15.417Z,29.89
2022-08-19T12:19:43.309Z,29.82
2022-08-19T12:22:11.266Z,29.71
2022-08-19T12:24:39.151Z,29.72
2022-08-19T12:27:12.554Z,29.89
2022-08-19T12:29:42.478Z,30.00
2022-08-19T12:32:12.211Z,29.50
2022-08-19T12:34:40.940Z,29.26
2022-08-19T12:37:09.504Z,29.74
2022-08-19T12:39:40.038Z,29.83
2022-08-19T12:42:09.977Z,30.08
2022-08-19T12:44:38.369Z,30.08
2022-08-19T12:47:11.263Z,29.94
2022-08-19T12:49:54.022Z,30.09
2022-08-19T12:52:23.817Z,29.68
2022-08-19T12:54:53.826Z,29.71
2022-08-19T12:57:24.377Z,29.17
2022-08-19T13:00:01.340Z,28.64
2022-08-19T13:02:33.028Z,28.19
2022-08-19T13:05:09.619Z,27.92
2022-08-19T13:07:39.115Z,27.81
2022-08-19T13:10:08.964Z,27.51
2022-08-19T13:12:38.535Z,27.48
2022-08-19T13:15:10.871Z,27.02
2022-08-19T13:17:42.029Z,27.38
2022-08-19T13:20:12.038Z,27.93
2022-08-19T13:22:40.155Z,28.33
2022-08-19T13:25:09.593Z,28.81
2022-08-19T13:27:38.156Z,29.69
2022-08-19T13:30:36.803Z,30.10
2022-08-19T13:33:12.698Z,30.23
2022-08-19T13:35:42.371Z,30.71
2022-08-19T13:38:11.678Z,30.68
2022-08-19T13:40:42.024Z,30.61
2022-08-19T13:43:22.628Z,31.26
2022-08-19T13:45:57.368Z,31.16
2022-08-19T13:48:28.446Z,31.50
2022-08-19T13:50:56.919Z,32.84
2022-08-19T13:53:25.542Z,33.37
2022-08-19T13:55:54.583Z,35.15
2022-08-19T13:58:23.184Z,37.48
2022-08-19T14:00:51.160Z,37.70
2022-08-19T14:03:19.209Z,36.86
2022-08-19T14:05:48.655Z,37.02
2022-08-19T14:08:17.211Z,37.72
2022-08-19T14:10:45.643Z,39.37
2022-08-19T14:13:16.857Z,39.68
2022-08-19T14:15:45.071Z,39.77
2022-08-19T14:18:13.407Z,39.80
2022-08-19T14:20:41.438Z,39.67
2022-08-19T14:23:10.745Z,39.96
2022-08-19T14:25:38.694Z,39.64
2022-08-19T14:28:07.666Z,39.53
2022-08-19T14:30:38.580Z,39.39
2022-08-19T14:33:08.218Z,39.11
2022-08-19T14:35:36.468Z,39.57
2022-08-19T14:38:05.772Z,39.60
2022-08-19T14:40:35.690Z,38.73
2022-08-19T14:43:06.459Z,39.16
2022-08-19T14:45:36.547Z,39.25
2022-08-19T14:48:05.641Z,39.25
2022-08-19T14:50:33.935Z,39.00
2022-08-19T14:53:09.327Z,39.58
2022-08-19T14:55:45.201Z,39.60
2022-08-19T14:58:29.435Z,39.41
2022-08-19T15:01:00.548Z,39.60
2022-08-19T15:03:29.388Z,40.04
2022-08-19T15:05:58.257Z,40.39
2022-08-19T15:08:26.980Z,40.29
2022-08-19T15:10:57.041Z,40.56
2022-08-19T15:13:25.800Z,40.72
2022-08-19T15:15:53.880Z,40.83
2022-08-19T15:18:22.653Z,40.59
2022-08-19T15:20:51.855Z,40.12
2022-08-19T15:23:21.152Z,39.85
2022-08-19T15:25:52.940Z,39.73
2022-08-19T15:28:22.484Z,39.83
2022-08-19T15:30:50.934Z,40.15
2022-08-19T15:33:20.609Z,40.33
2022-08-19T15:35:50.862Z,40.19
2022-08-19T15:38:20.624Z,40.53
2022-08-19T15:40:50.199Z,40.60
2022-08-19T15:43:21.228Z,40.58
2022-08-19T15:45:50.708Z,41.50
2022-08-19T15:48:18.724Z,41.95
2022-08-19T15:50:46.600Z,42.36
2022-08-19T15:53:14.520Z,42.95
2022-08-19T15:55:45.511Z,43.74
2022-08-19T15:58:33.132Z,44.09
2022-08-19T16:01:23.645Z,44.86
2022-08-19T16:04:13.979Z,45.43
2022-08-19T16:06:46.522Z,45.03
2022-08-19T16:09:15.949Z,44.67
2022-08-19T16:11:45.949Z,44.86
2022-08-19T16:14:14.572Z,44.91
2022-08-19T16:16:47.175Z,44.78
2022-08-19T16:19:17.044Z,45.34
2022-08-19T16:21:46.562Z,45.56
2022-08-19T16:24:16.529Z,45.75
2022-08-19T16:26:45.537Z,46.50
2022-08-19T16:29:14.467Z,49.97
2022-08-19T16:31:46.111Z,51.65
2022-08-19T16:34:15.210Z,51.53
2022-08-19T16:36:43.461Z,51.38
2022-08-19T16:39:12.554Z,52.22
2022-08-19T16:41:41.492Z,54.47
2022-08-19T16:44:11.977Z,55.96
2022-08-19T16:46:41.599Z,56.57
2022-08-19T16:49:12.387Z,58.65
2022-08-19T16:51:40.541Z,60.18
2022-08-19T16:54:09.113Z,59.21
2022-08-19T16:56:37.129Z,59.55
2022-08-19T16:59:06.475Z,61.26
2022-08-19T17:01:34.471Z,62.38
2022-08-19T17:04:02.588Z,62.75
2022-08-19T17:06:36.588Z,62.36
2022-08-19T17:09:07.123Z,61.32
2022-08-19T17:11:35.604Z,60.75
2022-08-19T17:14:04.576Z,60.74
2022-08-19T17:16:34.859Z,60.60
2022-08-19T17:19:04.935Z,60.03
2022-08-19T17:21:36.268Z,59.88
2022-08-19T17:24:08.596Z,60.33
2022-08-19T17:26:37.434Z,60.71
2022-08-19T17:29:07.150Z,60.38
2022-08-19T17:31:35.750Z,60.07
2022-08-19T17:34:03.821Z,61.61
2022-08-19T17:36:34.967Z,63.09
2022-08-19T17:39:05.543Z,62.79
2022-08-19T17:41:35.055Z,62.55
2022-08-19T17:44:03.321Z,62.83
2022-08-19T17:46:31.238Z,61.97
2022-08-19T17:48:59.351Z,61.91
2022-08-19T17:51:42.381Z,61.47
2022-08-19T17:54:13.917Z,61.44
2022-08-19T17:56:41.964Z,61.50
2022-08-19T17:59:11.806Z,61.59
2022-08-19T18:01:52.094Z,61.49
2022-08-19T18:04:21.128Z,61.61
2022-08-19T18:06:53.106Z,61.54
2022-08-19T18:09:24.594Z,61.11
2022-08-19T18:11:54.207Z,61.21
2022-08-19T18:14:32.793Z,61.33
2022-08-19T18:17:05.571Z,61.52
2022-08-19T18:19:41.191Z,61.36
2022-08-19T18:22:12.784Z,61.32
2022-08-19T18:24:41.573Z,61.12
2022-08-19T18:27:09.924Z,61.51
2022-08-19T18:29:38.593Z,62.12
2022-08-19T18:32:09.080Z,62.17
2022-08-19T18:34:37.460Z,63.27
2022-08-19T18:37:05.884Z,63.87
2022-08-19T18:39:52.696Z,63.69
2022-08-19T18:42:38.098Z,64.30
2022-08-19T18:45:25.258Z,64.88
2022-08-19T18:48:23.997Z,64.00
2022-08-19T18:50:58.298Z,64.39
2022-08-19T18:53:27.208Z,63.25
2022-08-19T18:55:57.041Z,64.54
2022-08-19T18:58:26.589Z,64.40
2022-08-19T19:00:57.369Z,63.33
2022-08-19T19:03:26.925Z,62.94
2022-08-19T19:05:55.242Z,63.25
2022-08-19T19:08:27.336Z,63.02
2022-08-19T19:10:58.919Z,63.59
2022-08-19T19:13:29.491Z,63.68
2022-08-19T19:15:57.450Z,65.06
2022-08-19T19:18:25.340Z,66.26
2022-08-19T19:20:53.312Z,67.16
2022-08-19T19:23:22.414Z,68.03
2022-08-19T19:25:52.217Z,68.69
2022-08-19T19:28:25.314Z,69.01
2022-08-19T19:30:54.311Z,68.95
2022-08-19T19:33:22.428Z,68.60
2022-08-19T19:35:50.332Z,69.35
2022-08-19T19:38:18.445Z,68.17
2022-08-19T19:40:46.507Z,68.47
2022-08-19T19:43:17.361Z,68.25
2022-08-19T19:45:48.205Z,68.81
2022-08-19T19:48:16.607Z,68.20
2022-08-19T19:50:44.760Z,67.66
2022-08-19T19:53:15.044Z,67.48
2022-08-19T19:55:43.195Z,66.79
2022-08-19T19:58:11.205Z,66.87
2022-08-19T20:00:39.150Z,66.75
2022-08-19T20:03:09.092Z,66.74
2022-08-19T20:05:36.989Z,66.09
2022-08-19T20:08:22.715Z,66.66
2022-08-19T20:10:50.756Z,66.87
2022-08-19T20:13:18.844Z,66.07
2022-08-19T20:15:46.733Z,66.35
2022-08-19T20:18:16.073Z,65.96
2022-08-19T20:20:45.060Z,65.70
2022-08-19T20:23:13.285Z,65.65
2022-08-19T20:25:41.167Z,65.31
2022-08-19T20:28:09.302Z,65.15
2022-08-19T20:30:40.453Z,64.93
2022-08-19T20:33:16.007Z,64.85
2022-08-19T20:35:44.932Z,64.58
2022-08-19T20:38:13.580Z,64.80
2022-08-19T20:40:41.535Z,65.91
2022-08-19T20:43:11.839Z,67.99
2022-08-19T20:45:40.074Z,69.08
2022-08-19T20:48:10.447Z,69.40
2022-08-19T20:50:40.628Z,70.57
2022-08-19T20:53:14.247Z,70.96
2022-08-19T20:55:45.381Z,71.20
2022-08-19T20:58:14.004Z,71.38
2022-08-19T21:00:43.808Z,70.80
2022-08-19T21:03:11.922Z,70.82
2022-08-19T21:05:41.208Z,70.83
2022-08-19T21:08:09.192Z,71.12
2022-08-19T21:10:40.534Z,71.49
2022-08-19T21:13:10.227Z,71.67
2022-08-19T21:15:40.565Z,71.92
2022-08-19T21:18:08.861Z,71.31
2022-08-19T21:20:37.138Z,71.56
2022-08-19T21:23:07.378Z,71.47
2022-08-19T21:25:35.818Z,71.51
2022-08-19T21:28:04.272Z,71.64
2022-08-19T21:30:32.222Z,71.82
2022-08-19T21:33:00.909Z,71.69
2022-08-19T21:35:29.464Z,70.77
2022-08-19T21:37:57.810Z,71.27
2022-08-19T21:40:28.019Z,71.25
2022-08-19T21:42:56.099Z,71.39
2022-08-19T21:45:24.326Z,70.99
2022-08-19T21:47:52.160Z,70.70
2022-08-19T21:50:20.540Z,72.55
2022-08-19T21:52:48.460Z,73.31
2022-08-19T21:55:17.177Z,73.04
2022-08-19T21:57:46.979Z,71.93
2022-08-19T22:00:18.518Z,71.28
2022-08-19T22:02:46.865Z,71.01
2022-08-19T22:05:15.139Z,71.22
2022-08-19T22:07:43.662Z,72.42
2022-08-19T22:10:11.910Z,71.77
2022-08-19T22:12:47.267Z,71.75
2022-08-19T22:15:22.215Z,71.26
2022-08-19T22:17:51.112Z,71.70
2022-08-19T22:20:21.926Z,71.13
2022-08-19T22:22:52.849Z,71.18
2022-08-19T22:25:31.272Z,71.57
2022-08-19T22:28:01.776Z,71.37
2022-08-19T22:30:34.038Z,70.77
2022-08-19T22:33:04.747Z,70.61
2022-08-19T22:35:35.821Z,70.08
2022-08-19T22:38:06.374Z,70.21
2022-08-19T22:40:36.836Z,70.03
2022-08-19T22:43:07.888Z,70.08
2022-08-19T22:45:38.021Z,70.76
2022-08-19T22:48:07.770Z,71.06
2022-08-19T22:50:36.096Z,71.49
2022-08-19T22:53:03.977Z,71.28
2022-08-19T22:55:32.205Z,71.19
2022-08-19T22:58:00.189Z,72.03
2022-08-19T23:00:29.648Z,72.14
2022-08-19T23:02:59.386Z,72.50
2022-08-19T23:05:29.593Z,73.16
2022-08-19T23:07:58.526Z,74.25
2022-08-19T23:10:28.964Z,75.38
2022-08-19T23:12:59.122Z,75.60
2022-08-19T23:15:31.086Z,76.33
2022-08-19T23:18:02.838Z,76.85
2022-08-19T23:20:34.438Z,77.23
2022-08-19T23:23:04.792Z,76.33
2022-08-19T23:25:35.216Z,75.44
2022-08-19T23:28:21.404Z,75.22
2022-08-19T23:30:51.077Z,74.56
2022-08-19T23:33:24.658Z,74.23
2022-08-19T23:35:55.673Z,74.41
2022-08-19T23:38:24.868Z,74.76
2022-08-19T23:40:54.765Z,75.82
2022-08-19T23:43:24.537Z,76.43
2022-08-19T23:45:53.788Z,76.34
2022-08-19T23:48:28.400Z,74.89
2022-08-19T23:50:57.444Z,74.53
2022-08-19T23:53:25.485Z,73.74
2022-08-19T23:55:53.660Z,73.66
2022-08-19T23:58:22.514Z,72.82
